Time;durP1;ratioP1;P1;durP2;ratioP2;P2;SDS_P1;SDS_P2;PMS_P1;PMS_P2;Temp;Humidity;BMP_temperature;BMP_pressure;BME280_temperature;BME280_humidity;BME280_pressure;Samples;Min_cycle;Max_cycle;Signal;HPM_P1;HPM_P2
2023/04/20 00:00:23;;;;;;;3.50;2.25;;;6.40;99.90;;;;;;4990735;28;20086;-75
2023/04/20 00:02:49;;;;;;;4.05;2.22;;;6.50;99.90;;;;;;4973754;28;20031;-75
2023/04/20 00:05:14;;;;;;;3.88;1.92;;;6.50;99.90;;;;;;4974213;28;20046;-75
2023/04/20 00:07:40;;;;;;;3.15;2.10;;;6.40;99.90;;;;;;4989992;28;20027;-75
2023/04/20 00:10:07;;;;;;;2.90;2.25;;;6.40;99.90;;;;;;4974523;28;20456;-75
2023/04/20 00:12:33;;;;;;;2.92;2.10;;;6.20;99.90;;;;;;4974976;28;20037;-75
2023/04/20 00:14:58;;;;;;;5.18;2.17;;;6.20;99.90;;;;;;4975395;28;20396;-75
2023/04/20 00:17:24;;;;;;;4.38;2.05;;;6.20;99.90;;;;;;4975328;28;20033;-75
2023/04/20 00:19:50;;;;;;;3.40;2.30;;;6.20;99.90;;;;;;4974663;28;20030;-75
2023/04/20 00:22:15;;;;;;;3.38;2.00;;;6.20;99.90;;;;;;4990345;28;20085;-75
2023/04/20 00:24:41;;;;;;;4.25;2.17;;;6.20;99.90;;;;;;4974499;28;20034;-75
2023/04/20 00:27:06;;;;;;;3.70;1.90;;;6.20;99.90;;;;;;4975532;28;20035;-75
2023/04/20 00:29:32;;;;;;;4.27;2.30;;;6.20;99.90;;;;;;4974482;28;20096;-76
2023/04/20 00:31:58;;;;;;;4.70;2.80;;;6.20;99.90;;;;;;4975198;28;20057;-75
2023/04/20 00:34:24;;;;;;;3.83;2.30;;;6.20;99.90;;;;;;4974946;28;20034;-75
2023/04/20 00:36:49;;;;;;;2.97;1.83;;;6.20;99.90;;;;;;4989402;28;20700;-75
2023/04/20 00:39:15;;;;;;;4.67;2.20;;;6.10;99.90;;;;;;4973619;28;20384;-75
2023/04/20 00:41:41;;;;;;;4.77;2.40;;;6.00;99.90;;;;;;4973937;28;20063;-75
2023/04/20 00:44:10;;;;;;;2.93;2.20;;;6.10;99.90;;;;;;4973399;28;20147;-75
2023/04/20 00:46:36;;;;;;;5.73;2.13;;;6.10;99.90;;;;;;4974078;28;20070;-75
2023/04/20 00:49:01;;;;;;;3.70;2.23;;;6.20;99.90;;;;;;4973439;28;20073;-75
2023/04/20 00:51:28;;;;;;;3.60;2.47;;;6.30;99.90;;;;;;4974689;28;20460;-75
2023/04/20 00:53:53;;;;;;;5.10;2.45;;;6.30;99.90;;;;;;4974195;28;20163;-75
2023/04/20 00:56:19;;;;;;;3.37;2.30;;;6.30;99.90;;;;;;4973280;28;20056;-75
2023/04/20 00:58:45;;;;;;;5.45;2.60;;;6.30;99.90;;;;;;4974049;28;20396;-75
2023/04/20 01:01:12;;;;;;;2.78;2.33;;;6.30;99.90;;;;;;4973330;28;20089;-75
2023/04/20 01:03:41;;;;;;;3.70;2.25;;;6.30;99.90;;;;;;4972689;28;20027;-75
2023/04/20 01:06:07;;;;;;;3.08;2.00;;;6.20;99.90;;;;;;4972441;28;20547;-75
2023/04/20 01:08:33;;;;;;;5.50;2.20;;;6.20;99.90;;;;;;4974653;28;20031;-75
2023/04/20 01:10:58;;;;;;;4.13;2.60;;;6.30;99.90;;;;;;4989216;28;20125;-75
2023/04/20 01:13:24;;;;;;;4.22;2.45;;;6.20;99.90;;;;;;4974279;28;20501;-75
2023/04/20 01:15:50;;;;;;;4.37;2.50;;;6.10;99.90;;;;;;4973771;28;20034;-75
2023/04/20 01:18:18;;;;;;;5.80;2.37;;;6.00;99.90;;;;;;4974317;28;20062;-75
2023/04/20 01:20:45;;;;;;;3.13;2.23;;;5.90;99.90;;;;;;4973586;28;20027;-75
2023/04/20 01:23:11;;;;;;;9.00;2.40;;;5.90;99.90;;;;;;4972866;28;20038;-75
2023/04/20 01:25:37;;;;;;;4.37;2.87;;;5.80;99.90;;;;;;4973470;28;20035;-75
2023/04/20 01:28:03;;;;;;;5.43;2.10;;;5.90;99.90;;;;;;4973984;28;20066;-75
2023/04/20 01:30:29;;;;;;;4.10;2.30;;;5.90;99.90;;;;;;4972686;28;20073;-75
2023/04/20 01:32:55;;;;;;;3.37;2.10;;;5.90;99.90;;;;;;4973434;28;20026;-75
2023/04/20 01:35:21;;;;;;;4.37;2.27;;;5.90;99.90;;;;;;4974321;28;20419;-75
2023/04/20 01:37:46;;;;;;;3.03;2.30;;;5.90;99.90;;;;;;4973401;28;20027;-75
2023/04/20 01:40:13;;;;;;;5.10;2.20;;;6.00;99.90;;;;;;4974245;28;20026;-75
2023/04/20 01:42:39;;;;;;;3.60;2.27;;;6.00;99.90;;;;;;4972061;28;20041;-75
2023/04/20 01:45:06;;;;;;;3.90;2.40;;;6.00;99.90;;;;;;4989034;28;20039;-75
2023/04/20 01:47:33;;;;;;;3.97;2.67;;;6.00;99.90;;;;;;4972601;28;20051;-75
2023/04/20 01:49:58;;;;;;;7.30;2.30;;;6.00;99.90;;;;;;4973383;28;20037;-75
2023/04/20 01:52:24;;;;;;;3.63;2.60;;;6.00;99.90;;;;;;4973880;28;20027;-75
2023/04/20 01:54:50;;;;;;;9.60;2.45;;;5.90;99.90;;;;;;4973330;28;20428;-75
2023/04/20 01:57:15;;;;;;;3.57;2.30;;;6.00;99.90;;;;;;4972587;28;20023;-75
2023/04/20 01:59:41;;;;;;;4.40;2.60;;;6.10;99.90;;;;;;4971919;28;20041;-75
2023/04/20 02:02:06;;;;;;;5.13;2.50;;;6.10;99.90;;;;;;4972822;28;20031;-75
2023/04/20 02:04:32;;;;;;;4.00;2.20;;;6.00;99.90;;;;;;4973792;28;20035;-75
2023/04/20 02:06:58;;;;;;;4.40;2.60;;;6.00;99.90;;;;;;4973108;28;20441;-75
2023/04/20 02:09:23;;;;;;;3.47;2.20;;;6.00;99.90;;;;;;4988569;28;20078;-75
2023/04/20 02:11:49;;;;;;;4.77;2.80;;;6.00;99.90;;;;;;4971845;28;20033;-75
2023/04/20 02:14:15;;;;;;;3.73;2.50;;;6.00;99.90;;;;;;4973661;28;20102;-75
2023/04/20 02:16:41;;;;;;;5.67;2.30;;;6.00;99.90;;;;;;4973682;28;20067;-76
2023/04/20 02:19:07;;;;;;;5.23;2.47;;;5.90;99.90;;;;;;4976220;28;20037;-75
2023/04/20 02:21:33;;;;;;;4.20;2.30;;;5.90;99.90;;;;;;4992453;28;20037;-75
2023/04/20 02:23:59;;;;;;;3.57;2.77;;;5.90;99.90;;;;;;4975295;28;20031;-75
2023/04/20 02:26:24;;;;;;;4.23;2.23;;;5.80;99.90;;;;;;4976182;28;20038;-75
2023/04/20 02:28:50;;;;;;;5.67;2.33;;;5.80;99.90;;;;;;4975582;28;20121;-75
2023/04/20 02:31:15;;;;;;;3.43;2.33;;;5.80;99.90;;;;;;4977295;28;20073;-74
2023/04/20 02:33:41;;;;;;;4.57;2.53;;;5.80;99.90;;;;;;4975382;28;20121;-76
2023/04/20 02:36:07;;;;;;;5.20;2.73;;;5.80;99.90;;;;;;4976380;28;20370;-75
2023/04/20 02:38:33;;;;;;;4.03;2.53;;;5.90;99.90;;;;;;4976944;28;20031;-76
2023/04/20 02:40:58;;;;;;;4.83;2.60;;;5.80;99.90;;;;;;4975241;28;20049;-75
2023/04/20 02:43:24;;;;;;;4.23;2.43;;;5.80;99.90;;;;;;4975880;28;20034;-75
2023/04/20 02:45:50;;;;;;;5.47;2.60;;;5.70;99.90;;;;;;4976382;28;20035;-75
2023/04/20 02:48:15;;;;;;;5.27;2.80;;;5.70;99.90;;;;;;4977255;28;20043;-75
2023/04/20 02:50:41;;;;;;;5.40;2.60;;;5.60;99.90;;;;;;4975210;28;20041;-75
2023/04/20 02:53:07;;;;;;;4.77;2.50;;;5.50;99.90;;;;;;4992017;28;20109;-75
2023/04/20 02:55:33;;;;;;;6.47;2.60;;;5.40;99.90;;;;;;4976787;28;20486;-75
2023/04/20 02:57:58;;;;;;;9.57;2.70;;;5.20;99.90;;;;;;4975073;28;20495;-75
2023/04/20 03:00:24;;;;;;;3.60;2.50;;;5.10;99.90;;;;;;4976408;28;20030;-75
2023/04/20 03:02:50;;;;;;;3.37;2.30;;;5.10;99.90;;;;;;4991146;28;20031;-75
2023/04/20 03:05:17;;;;;;;3.93;2.47;;;5.10;99.90;;;;;;4976640;28;20035;-75
2023/04/20 03:07:42;;;;;;;4.17;2.43;;;5.10;99.90;;;;;;4991005;28;20027;-75
2023/04/20 03:10:08;;;;;;;3.00;2.33;;;5.10;99.90;;;;;;4991569;28;20388;-75
2023/04/20 03:12:34;;;;;;;6.07;2.50;;;5.00;99.90;;;;;;4976743;28;20027;-75
2023/04/20 03:15:00;;;;;;;7.90;3.80;;;5.00;99.90;;;;;;4975927;28;20046;-75
2023/04/20 03:17:26;;;;;;;3.27;2.23;;;5.10;99.90;;;;;;4976384;28;20089;-75
2023/04/20 03:19:52;;;;;;;4.23;2.87;;;5.10;99.90;;;;;;4974245;28;20030;-75
2023/04/20 03:22:18;;;;;;;4.17;2.57;;;5.20;99.90;;;;;;4991381;28;20027;-75
2023/04/20 03:24:44;;;;;;;5.27;2.80;;;5.20;99.90;;;;;;4974529;28;20370;-75
2023/04/20 03:27:10;;;;;;;3.17;2.60;;;5.30;99.90;;;;;;4991346;28;20488;-75
2023/04/20 03:29:35;;;;;;;4.33;2.77;;;5.20;99.90;;;;;;4974719;28;20031;-76
2023/04/20 03:32:01;;;;;;;6.30;2.70;;;5.20;99.90;;;;;;4975510;28;20085;-76
2023/04/20 03:34:26;;;;;;;4.50;3.10;;;5.30;99.90;;;;;;4976199;28;20439;-76
2023/04/20 03:36:52;;;;;;;4.10;2.90;;;5.30;99.90;;;;;;4990505;28;20031;-75
2023/04/20 03:39:17;;;;;;;4.83;2.80;;;5.20;99.90;;;;;;4974878;28;20114;-75
2023/04/20 03:41:43;;;;;;;7.13;2.80;;;5.20;99.90;;;;;;4990333;28;20464;-75
2023/04/20 03:44:09;;;;;;;4.93;2.90;;;5.20;99.90;;;;;;4990931;28;20070;-75
2023/04/20 03:46:35;;;;;;;5.67;3.17;;;5.20;99.90;;;;;;4974552;28;20047;-76
2023/04/20 03:49:00;;;;;;;9.27;3.60;;;5.20;99.90;;;;;;4974043;28;20027;-75
2023/04/20 03:51:26;;;;;;;4.43;2.73;;;5.30;99.90;;;;;;4990905;28;20090;-75
2023/04/20 03:53:53;;;;;;;5.67;3.20;;;5.30;99.90;;;;;;4974037;28;20150;-75
2023/04/20 03:56:18;;;;;;;4.10;2.57;;;5.20;99.90;;;;;;4975748;28;20516;-75
2023/04/20 03:58:44;;;;;;;4.70;3.03;;;5.10;99.90;;;;;;4973843;28;20023;-74
2023/04/20 04:01:12;;;;;;;5.43;3.03;;;5.10;99.90;;;;;;4974035;28;20059;-75
2023/04/20 04:03:37;;;;;;;4.77;2.63;;;5.00;99.90;;;;;;4990598;28;20027;-75
2023/04/20 04:06:03;;;;;;;7.57;2.50;;;5.10;99.90;;;;;;4973587;28;20034;-75
2023/04/20 04:08:30;;;;;;;5.07;3.00;;;5.00;99.90;;;;;;4975595;28;20114;-75
2023/04/20 04:10:56;;;;;;;5.63;2.57;;;5.00;99.90;;;;;;4974887;28;20089;-74
2023/04/20 04:13:21;;;;;;;4.53;2.60;;;5.00;99.90;;;;;;4974145;28;20038;-75
2023/04/20 04:15:47;;;;;;;6.13;3.10;;;5.00;99.90;;;;;;4973474;28;20034;-74
2023/04/20 04:18:12;;;;;;;5.33;3.33;;;5.00;99.90;;;;;;4974962;28;20031;-75
2023/04/20 04:20:38;;;;;;;6.60;2.80;;;4.90;99.90;;;;;;4975417;28;20038;-75
2023/04/20 04:23:04;;;;;;;6.70;3.30;;;4.80;99.90;;;;;;4974686;28;20384;-77
2023/04/20 04:25:30;;;;;;;5.07;3.10;;;4.70;99.90;;;;;;4973933;28;20496;-75
2023/04/20 04:27:56;;;;;;;4.07;2.57;;;4.60;99.90;;;;;;4974570;28;20062;-76
2023/04/20 04:30:22;;;;;;;4.30;3.00;;;4.50;99.90;;;;;;4989998;28;20038;-76
2023/04/20 04:32:49;;;;;;;4.30;2.87;;;4.20;99.90;;;;;;4974619;28;20027;-76
2023/04/20 04:35:15;;;;;;;4.23;2.63;;;4.30;99.90;;;;;;4975236;28;20027;-76
2023/04/20 04:37:41;;;;;;;5.00;2.90;;;4.20;99.90;;;;;;4990060;28;20399;-76
2023/04/20 04:40:07;;;;;;;5.83;2.50;;;4.20;99.90;;;;;;4989326;28;20145;-76
2023/04/20 04:42:34;;;;;;;4.93;2.90;;;4.20;99.90;;;;;;4973280;28;20031;-77
2023/04/20 04:45:01;;;;;;;6.93;2.67;;;4.20;99.90;;;;;;4973086;28;20038;-76
2023/04/20 04:47:28;;;;;;;6.20;3.20;;;4.10;99.90;;;;;;4974864;28;20046;-76
2023/04/20 04:49:54;;;;;;;8.40;2.93;;;4.10;99.90;;;;;;4974185;28;20041;-76
2023/04/20 04:52:20;;;;;;;3.80;2.70;;;4.10;99.90;;;;;;4974931;28;20030;-76
2023/04/20 04:54:46;;;;;;;4.73;2.87;;;4.20;99.90;;;;;;4972992;28;20084;-76
2023/04/20 04:57:11;;;;;;;4.87;2.50;;;4.20;99.90;;;;;;4975005;28;20031;-76
2023/04/20 04:59:37;;;;;;;10.40;3.33;;;4.20;99.90;;;;;;4974577;28;20109;-77
2023/04/20 05:02:02;;;;;;;3.93;2.50;;;4.30;99.90;;;;;;4973989;28;20072;-76
2023/04/20 05:04:28;;;;;;;5.43;3.00;;;4.30;99.90;;;;;;4973307;28;20037;-76
2023/04/20 05:06:54;;;;;;;4.97;2.83;;;4.40;99.90;;;;;;4973581;28;20444;-76
2023/04/20 05:09:19;;;;;;;7.63;2.67;;;4.50;99.90;;;;;;4974805;28;20027;-77
2023/04/20 05:11:45;;;;;;;8.00;3.20;;;4.60;99.90;;;;;;4974193;28;20361;-76
2023/04/20 05:14:10;;;;;;;6.63;3.30;;;4.60;99.90;;;;;;4988852;28;20137;-76
2023/04/20 05:16:36;;;;;;;3.67;2.73;;;4.60;99.90;;;;;;4974451;28;20027;-76
2023/04/20 05:19:02;;;;;;;4.43;2.90;;;4.60;99.90;;;;;;4973770;28;20110;-76
2023/04/20 05:21:28;;;;;;;5.73;3.37;;;4.60;99.90;;;;;;4989442;28;20022;-77
2023/04/20 05:23:54;;;;;;;6.20;3.20;;;4.50;99.90;;;;;;4988723;28;20114;-76
2023/04/20 05:26:19;;;;;;;5.27;3.23;;;4.50;99.90;;;;;;4974049;28;20039;-76
2023/04/20 05:28:45;;;;;;;5.93;3.43;;;4.50;99.90;;;;;;4972698;28;20495;-77
2023/04/20 05:31:11;;;;;;;5.57;3.20;;;4.60;99.90;;;;;;4973616;28;20034;-77
2023/04/20 05:33:36;;;;;;;6.57;4.03;;;4.60;99.90;;;;;;4973062;28;20026;-77
2023/04/20 05:36:02;;;;;;;8.03;3.60;;;4.70;99.90;;;;;;4972307;28;20391;-76
2023/04/20 05:38:27;;;;;;;5.37;3.40;;;4.80;99.90;;;;;;4974377;28;20066;-76
2023/04/20 05:40:53;;;;;;;6.07;3.50;;;4.90;99.90;;;;;;4988302;28;20130;-76
2023/04/20 05:43:19;;;;;;;5.20;3.20;;;4.90;99.90;;;;;;4989062;28;20038;-76
2023/04/20 05:45:45;;;;;;;8.27;3.43;;;4.90;99.90;;;;;;4973841;28;20118;-77
2023/04/20 05:48:11;;;;;;;7.73;3.60;;;4.90;99.90;;;;;;4973743;28;20078;-76
2023/04/20 05:50:36;;;;;;;7.73;3.70;;;4.90;99.90;;;;;;4990028;28;20460;-76
2023/04/20 05:53:02;;;;;;;5.20;3.03;;;5.00;99.90;;;;;;4979967;28;20065;-76
2023/04/20 05:55:28;;;;;;;7.90;4.17;;;5.00;99.90;;;;;;4980267;28;20030;-78
2023/04/20 05:57:53;;;;;;;7.50;3.43;;;5.10;99.90;;;;;;4980133;28;20031;-76
2023/04/20 06:00:19;;;;;;;7.73;3.67;;;5.10;99.90;;;;;;4980203;28;20027;-77
2023/04/20 06:02:45;;;;;;;6.67;3.60;;;5.10;99.90;;;;;;4980274;28;20026;-77
2023/04/20 06:05:11;;;;;;;9.17;3.60;;;5.20;99.90;;;;;;4978449;28;20045;-76
2023/04/20 06:07:37;;;;;;;6.83;3.57;;;5.30;99.90;;;;;;4995280;28;20023;-77
2023/04/20 06:10:03;;;;;;;4.67;3.30;;;5.40;99.90;;;;;;4979640;28;20038;-76
2023/04/20 06:12:29;;;;;;;5.70;3.33;;;5.40;99.90;;;;;;4980434;28;20031;-77
2023/04/20 06:14:56;;;;;;;5.43;3.50;;;5.40;99.90;;;;;;4978492;28;20035;-77
2023/04/20 06:17:22;;;;;;;5.43;3.60;;;5.50;99.90;;;;;;4979929;28;20412;-77
2023/04/20 06:19:47;;;;;;;6.23;3.40;;;5.50;99.90;;;;;;4980163;28;20027;-76
2023/04/20 06:22:14;;;;;;;8.87;3.97;;;5.60;99.90;;;;;;4994552;28;20430;-76
2023/04/20 06:24:41;;;;;;;5.63;3.80;;;5.60;99.90;;;;;;4978774;28;20030;-77
2023/04/20 06:27:07;;;;;;;6.33;3.60;;;5.70;99.90;;;;;;4978291;28;20380;-77
2023/04/20 06:29:33;;;;;;;4.63;3.37;;;5.80;99.90;;;;;;4978826;28;20062;-76
2023/04/20 06:31:58;;;;;;;6.77;3.97;;;5.90;99.90;;;;;;4979545;28;20396;-77
2023/04/20 06:34:24;;;;;;;9.07;3.90;;;5.90;99.90;;;;;;4978743;28;20077;-77
2023/04/20 06:36:50;;;;;;;5.50;3.47;;;6.00;99.90;;;;;;4994936;28;20081;-77
2023/04/20 06:39:16;;;;;;;5.73;3.40;;;6.10;99.90;;;;;;4994443;28;20030;-76
2023/04/20 06:41:42;;;;;;;6.17;3.33;;;6.10;99.90;;;;;;4978892;28;20030;-77
2023/04/20 06:44:08;;;;;;;8.57;3.60;;;6.10;99.90;;;;;;4994515;28;20039;-77
2023/04/20 06:46:33;;;;;;;8.50;3.57;;;6.20;99.90;;;;;;4978547;28;20050;-77
2023/04/20 06:48:59;;;;;;;4.60;3.00;;;6.20;99.90;;;;;;4988512;28;20022;-76
2023/04/20 06:51:26;;;;;;;10.50;4.37;;;6.30;99.90;;;;;;4997663;28;20045;-77
2023/04/20 06:53:53;;;;;;;7.27;3.93;;;6.30;99.90;;;;;;4997805;28;20403;-77
2023/04/20 06:56:19;;;;;;;6.33;3.40;;;6.40;99.90;;;;;;4998994;28;20026;-76
2023/04/20 06:58:44;;;;;;;5.90;3.30;;;6.50;99.90;;;;;;4998755;28;20022;-77
2023/04/20 07:01:10;;;;;;;6.53;4.17;;;6.50;99.90;;;;;;4997063;28;20081;-77
2023/04/20 07:03:36;;;;;;;10.10;3.87;;;6.60;99.90;;;;;;4995027;28;20101;-76
2023/04/20 07:06:02;;;;;;;5.97;3.57;;;6.60;99.90;;;;;;4994003;28;20365;-76
2023/04/20 07:08:28;;;;;;;11.10;4.00;;;6.60;99.90;;;;;;4994207;28;20038;-77
2023/04/20 07:10:53;;;;;;;7.40;4.07;;;6.70;99.90;;;;;;4995098;28;20519;-76
2023/04/20 07:13:19;;;;;;;6.27;3.70;;;6.80;99.90;;;;;;4994283;28;20034;-77
2023/04/20 07:15:45;;;;;;;9.07;3.80;;;6.80;99.90;;;;;;4995697;28;20037;-76
2023/04/20 07:18:10;;;;;;;5.70;3.63;;;6.80;99.90;;;;;;4994666;28;20080;-76
2023/04/20 07:20:36;;;;;;;8.18;3.85;;;6.90;99.90;;;;;;4995055;28;20022;-77
2023/04/20 07:23:02;;;;;;;8.18;4.18;;;6.90;99.90;;;;;;4994931;28;20030;-76
2023/04/20 07:25:30;;;;;;;6.25;3.78;;;6.90;99.90;;;;;;4994167;28;20039;-77
2023/04/20 07:27:55;;;;;;;10.50;4.57;;;7.00;99.90;;;;;;4993306;28;20124;-76
2023/04/20 07:30:21;;;;;;;5.07;3.72;;;7.10;99.90;;;;;;4994119;28;20534;-77
2023/04/20 07:32:48;;;;;;;7.65;4.32;;;7.10;99.90;;;;;;4994051;28;20530;-77
2023/04/20 07:35:13;;;;;;;7.30;3.95;;;7.10;99.90;;;;;;4994417;28;20485;-76
2023/04/20 07:37:39;;;;;;;8.13;3.92;;;7.20;99.90;;;;;;4995113;28;20101;-77
2023/04/20 07:40:05;;;;;;;9.57;5.53;;;7.30;99.90;;;;;;4993220;28;20022;-77
2023/04/20 07:42:33;;;;;;;7.57;3.72;;;7.40;99.90;;;;;;4994539;28;20026;-76
2023/04/20 07:44:59;;;;;;;7.93;4.05;;;7.40;99.90;;;;;;4993225;28;20031;-76
2023/04/20 07:47:24;;;;;;;6.63;3.88;;;7.40;99.90;;;;;;4991843;28;20096;-77
2023/04/20 07:49:50;;;;;;;9.70;4.28;;;7.50;99.90;;;;;;4993620;28;20362;-77
2023/04/20 07:52:17;;;;;;;9.18;3.83;;;7.50;99.90;;;;;;4994137;28;20034;-76
2023/04/20 07:54:43;;;;;;;6.90;4.07;;;7.60;99.90;;;;;;4994789;28;20383;-76
2023/04/20 07:57:10;;;;;;;6.00;4.00;;;7.60;99.90;;;;;;4993884;28;20069;-75
2023/04/20 07:59:35;;;;;;;7.13;3.88;;;7.60;99.90;;;;;;4993209;28;20361;-76
2023/04/20 08:02:02;;;;;;;7.13;3.58;;;7.70;99.90;;;;;;4993581;28;20039;-76
2023/04/20 08:04:28;;;;;;;5.93;3.58;;;7.70;99.90;;;;;;4994168;28;20030;-77
2023/04/20 08:06:54;;;;;;;6.35;4.30;;;7.80;99.90;;;;;;4993297;28;20093;-77
2023/04/20 08:09:19;;;;;;;6.22;4.28;;;7.80;99.90;;;;;;4993351;28;20034;-77
2023/04/20 08:11:47;;;;;;;7.82;4.18;;;7.80;99.90;;;;;;4993074;28;20106;-77
2023/04/20 08:14:14;;;;;;;10.57;4.45;;;7.90;99.90;;;;;;4992239;28;20038;-77
2023/04/20 08:16:40;;;;;;;8.93;4.47;;;7.90;99.90;;;;;;4994603;28;20019;-77
2023/04/20 08:19:09;;;;;;;6.95;3.97;;;8.00;99.90;;;;;;4991972;28;20033;-77
2023/04/20 08:21:41;;;;;;;13.55;4.30;;;8.10;99.90;;;;;;4993128;28;20030;-76
2023/04/20 08:24:08;;;;;;;8.68;4.47;;;8.00;99.90;;;;;;4992636;28;20392;-76
2023/04/20 08:26:33;;;;;;;7.90;4.30;;;8.10;99.90;;;;;;4994055;28;20034;-77
2023/04/20 08:29:00;;;;;;;7.25;4.28;;;8.10;99.90;;;;;;4993599;28;20101;-77
2023/04/20 08:31:26;;;;;;;5.80;4.10;;;8.10;99.90;;;;;;4992525;28;20034;-77
2023/04/20 08:33:52;;;;;;;10.90;4.47;;;8.10;99.90;;;;;;4993243;28;20034;-77
2023/04/20 08:36:18;;;;;;;6.75;4.25;;;8.20;99.90;;;;;;4993593;28;20041;-76
2023/04/20 08:38:43;;;;;;;7.95;4.32;;;8.20;99.90;;;;;;4993918;28;20049;-76
2023/04/20 08:41:13;;;;;;;6.13;4.00;;;8.30;99.90;;;;;;4991506;28;20022;-76
2023/04/20 08:43:39;;;;;;;7.47;4.20;;;8.40;99.90;;;;;;4992630;28;20033;-76
2023/04/20 08:46:06;;;;;;;6.15;4.20;;;8.40;99.90;;;;;;4991376;28;20034;-77
2023/04/20 08:48:36;;;;;;;12.02;4.40;;;8.50;99.90;;;;;;4993615;28;20049;-77
2023/04/20 08:51:05;;;;;;;7.00;4.10;;;8.60;99.90;;;;;;4993046;28;20030;-76
2023/04/20 08:53:31;;;;;;;7.50;4.15;;;8.70;99.90;;;;;;4992626;28;20031;-76
2023/04/20 08:55:57;;;;;;;10.10;4.88;;;8.80;99.90;;;;;;4992546;28;20124;-76
2023/04/20 08:58:32;;;;;;;9.35;4.00;;;9.00;99.90;;;;;;4992481;28;20026;-76
2023/04/20 09:01:01;;;;;;;6.65;4.30;;;9.10;99.90;;;;;;4991847;28;20030;-76
2023/04/20 09:03:38;;;;;;;6.65;4.18;;;9.10;99.90;;;;;;4993607;28;20053;-76
2023/04/20 09:06:05;;;;;;;6.18;4.40;;;9.20;99.90;;;;;;4991870;28;20030;-77
2023/04/20 09:08:39;;;;;;;6.57;4.13;;;9.20;99.90;;;;;;4992390;28;20108;-76
2023/04/20 09:11:06;;;;;;;6.45;4.45;;;9.20;99.90;;;;;;4991427;28;20118;-76
2023/04/20 09:13:32;;;;;;;9.43;4.13;;;9.20;99.90;;;;;;4992067;28;20034;-77
2023/04/20 09:16:08;;;;;;;7.60;4.05;;;9.30;99.90;;;;;;4993507;28;20049;-76
2023/04/20 09:18:34;;;;;;;7.85;4.03;;;9.30;99.90;;;;;;4988354;28;20045;-77
2023/04/20 09:21:09;;;;;;;23.77;7.55;;;9.50;99.90;;;;;;4991560;28;20023;-77
2023/04/20 09:23:35;;;;;;;20.67;4.75;;;9.50;99.90;;;;;;4993574;28;20022;-76
2023/04/20 09:26:01;;;;;;;6.32;3.85;;;9.50;99.90;;;;;;4990802;28;20030;-76
2023/04/20 09:28:40;;;;;;;7.97;4.35;;;9.50;99.90;;;;;;4993180;28;20101;-76
2023/04/20 09:31:20;;;;;;;6.57;4.03;;;9.50;99.90;;;;;;4991560;28;20049;-76
2023/04/20 09:34:02;;;;;;;5.72;4.10;;;9.50;99.90;;;;;;4972709;28;20042;-77
2023/04/20 09:36:36;;;;;;;8.07;3.53;;;9.60;99.90;;;;;;4991263;28;20477;-76
2023/04/20 09:39:09;;;;;;;8.70;4.60;;;9.70;99.90;;;;;;4992734;28;20037;-77
2023/04/20 09:41:35;;;;;;;5.82;4.28;;;9.80;99.90;;;;;;4991455;28;20019;-76
2023/04/20 09:44:02;;;;;;;6.45;4.03;;;9.90;99.90;;;;;;4991445;28;20126;-77
2023/04/20 09:46:33;;;;;;;7.00;3.80;;;10.00;99.90;;;;;;4991315;28;20050;-77
2023/04/20 09:48:59;;;;;;;8.50;4.03;;;10.20;99.90;;;;;;4992980;28;20054;-77
2023/04/20 09:51:30;;;;;;;5.63;3.70;;;10.30;99.90;;;;;;4990828;28;20259;-77
2023/04/20 09:53:58;;;;;;;7.55;4.97;;;10.50;99.90;;;;;;4992965;28;20427;-77
2023/04/20 09:56:25;;;;;;;8.07;4.38;;;10.60;99.90;;;;;;4991106;28;20034;-76
2023/04/20 09:58:51;;;;;;;6.50;4.00;;;10.60;99.90;;;;;;4993435;28;20082;-77
2023/04/20 10:01:18;;;;;;;8.00;4.32;;;10.60;99.90;;;;;;4990888;28;20022;-77
2023/04/20 10:03:44;;;;;;;7.72;4.40;;;10.70;99.90;;;;;;4993013;28;20081;-78
2023/04/20 10:06:25;;;;;;;7.28;4.47;;;10.70;99.90;;;;;;4991180;28;20398;-77
2023/04/20 10:08:52;;;;;;;6.80;4.20;;;10.70;99.90;;;;;;4977573;28;20037;-77
2023/04/20 10:11:41;;;;;;;6.97;4.43;;;10.80;99.90;;;;;;4990654;28;20030;-77
2023/04/20 10:14:21;;;;;;;7.82;4.47;;;10.80;99.90;;;;;;4991325;28;20439;-77
2023/04/20 10:17:06;;;;;;;6.10;4.07;;;10.80;99.90;;;;;;4991762;28;20026;-77
2023/04/20 10:19:43;;;;;;;8.15;4.88;;;10.90;99.90;;;;;;4995847;28;20027;-77
2023/04/20 10:22:13;;;;;;;5.88;4.13;;;11.10;99.90;;;;;;4988505;28;20464;-75
2023/04/20 10:24:38;;;;;;;8.15;4.30;;;11.20;99.90;;;;;;4976971;28;20030;-74
2023/04/20 10:27:19;;;;;;;7.55;4.15;;;11.30;99.90;;;;;;4991163;28;20038;-75
2023/04/20 10:29:44;;;;;;;6.22;4.10;;;11.30;99.90;;;;;;4992854;28;20050;-75
2023/04/20 10:32:21;;;;;;;7.70;4.38;;;11.40;99.90;;;;;;4990682;28;20057;-74
2023/04/20 10:34:47;;;;;;;5.85;4.38;;;11.50;99.90;;;;;;4991488;28;20114;-74
2023/04/20 10:37:13;;;;;;;10.48;4.47;;;11.50;99.90;;;;;;4991626;28;20117;-75
2023/04/20 10:39:46;;;;;;;7.43;4.50;;;11.50;99.90;;;;;;4996345;28;20098;-74
2023/04/20 10:42:12;;;;;;;7.80;4.40;;;11.50;99.90;;;;;;4995421;28;20108;-74
2023/04/20 10:44:51;;;;;;;8.27;4.50;;;11.50;99.90;;;;;;4975528;28;20484;-74
2023/04/20 10:47:25;;;;;;;12.25;4.32;;;11.40;99.90;;;;;;4995986;28;20046;-75
2023/04/20 10:49:50;;;;;;;6.47;3.92;;;11.40;99.90;;;;;;4996238;28;20018;-75
2023/04/20 10:52:16;;;;;;;7.45;3.92;;;11.40;99.90;;;;;;4993918;28;20384;-75
2023/04/20 10:54:41;;;;;;;6.00;4.32;;;11.40;99.90;;;;;;4996004;28;20030;-75
2023/04/20 10:57:07;;;;;;;6.13;3.85;;;11.50;99.90;;;;;;4994085;28;20026;-74
2023/04/20 10:59:36;;;;;;;5.45;3.83;;;11.50;99.90;;;;;;4994844;28;20034;-75
2023/04/20 11:02:06;;;;;;;6.57;3.72;;;11.60;99.90;;;;;;4995539;28;20022;-75
2023/04/20 11:04:33;;;;;;;7.82;4.00;;;11.50;99.90;;;;;;4995810;28;20472;-75
2023/04/20 11:07:06;;;;;;;5.15;3.63;;;11.40;99.90;;;;;;4994534;28;20054;-75
2023/04/20 11:09:33;;;;;;;5.95;3.88;;;11.30;99.90;;;;;;4995873;28;20045;-77
2023/04/20 11:12:13;;;;;;;6.20;3.95;;;11.20;99.90;;;;;;4994305;28;20030;-77
2023/04/20 11:14:54;;;;;;;8.10;3.60;;;11.20;99.90;;;;;;4978762;28;20045;-77
2023/04/20 11:17:29;;;;;;;5.05;3.55;;;11.20;99.90;;;;;;4994968;28;20026;-77
2023/04/20 11:20:15;;;;;;;6.38;3.78;;;11.20;99.90;;;;;;4980673;28;20143;-77
2023/04/20 11:22:42;;;;;;;4.93;3.78;;;11.30;99.90;;;;;;4980002;28;20073;-77
2023/04/20 11:25:09;;;;;;;8.73;4.03;;;11.30;99.90;;;;;;4994899;28;20108;-77
2023/04/20 11:27:36;;;;;;;6.50;3.88;;;11.40;99.90;;;;;;4994425;28;20535;-77
2023/04/20 11:30:04;;;;;;;5.97;3.88;;;11.50;99.90;;;;;;4995719;28;20161;-77
2023/04/20 11:32:31;;;;;;;7.20;4.47;;;11.50;99.90;;;;;;4994459;28;20022;-77
2023/04/20 11:35:01;;;;;;;8.10;4.22;;;11.50;99.90;;;;;;4995128;28;20031;-77
2023/04/20 11:37:27;;;;;;;6.85;4.28;;;11.60;99.90;;;;;;4994585;28;20181;-77
2023/04/20 11:40:08;;;;;;;10.60;4.72;;;11.60;99.90;;;;;;4994057;28;20035;-77
2023/04/20 11:42:34;;;;;;;5.35;3.92;;;11.70;99.90;;;;;;4994352;28;20494;-77
2023/04/20 11:45:00;;;;;;;6.93;4.43;;;11.60;99.90;;;;;;4995017;28;20045;-77
2023/04/20 11:47:26;;;;;;;7.57;4.32;;;11.80;99.90;;;;;;4992740;28;20242;-76
2023/04/20 11:49:51;;;;;;;5.30;3.83;;;11.90;99.90;;;;;;4994390;28;20022;-75
2023/04/20 11:52:17;;;;;;;4.47;3.50;;;12.10;99.90;;;;;;4992828;28;20384;-75
2023/04/20 11:54:43;;;;;;;7.95;4.00;;;12.20;99.90;;;;;;4993751;28;20031;-75
2023/04/20 11:57:08;;;;;;;6.65;4.03;;;12.40;99.90;;;;;;4993949;28;20472;-74
2023/04/20 11:59:34;;;;;;;8.85;4.88;;;12.40;99.90;;;;;;4995009;28;20054;-74
2023/04/20 12:02:02;;;;;;;8.68;4.95;;;12.30;99.90;;;;;;4993609;28;20113;-75
2023/04/20 12:04:33;;;;;;;6.43;4.40;;;12.30;99.90;;;;;;4993832;28;20080;-75
2023/04/20 12:06:59;;;;;;;8.57;4.28;;;12.10;99.90;;;;;;4993811;28;20030;-75
2023/04/20 12:09:29;;;;;;;5.60;4.13;;;12.00;99.90;;;;;;4992784;28;20122;-75
2023/04/20 12:11:54;;;;;;;6.15;4.13;;;12.00;99.90;;;;;;4994945;28;20423;-77
2023/04/20 12:14:20;;;;;;;7.68;4.20;;;12.00;99.90;;;;;;4993860;28;20030;-77
2023/04/20 12:16:46;;;;;;;6.90;4.05;;;11.90;99.90;;;;;;4994750;28;20029;-77
2023/04/20 12:19:11;;;;;;;6.05;3.85;;;11.90;99.90;;;;;;4992632;28;20034;-77
2023/04/20 12:21:37;;;;;;;10.02;4.07;;;11.80;99.90;;;;;;4994692;28;20030;-77
2023/04/20 12:24:03;;;;;;;6.00;3.80;;;11.80;99.90;;;;;;4994287;28;20034;-77
2023/04/20 12:26:28;;;;;;;6.15;4.03;;;11.80;99.90;;;;;;4993773;28;20034;-74
2023/04/20 12:28:54;;;;;;;8.40;3.92;;;11.80;99.90;;;;;;4994293;28;20041;-75
2023/04/20 12:31:20;;;;;;;6.25;3.88;;;11.90;99.90;;;;;;4993686;28;20511;-75
2023/04/20 12:33:45;;;;;;;6.05;3.60;;;12.00;99.90;;;;;;4992847;28;20507;-75
2023/04/20 12:36:11;;;;;;;5.00;3.30;;;12.00;99.90;;;;;;4992514;28;20048;-75
2023/04/20 12:38:37;;;;;;;5.43;3.55;;;12.00;99.90;;;;;;4993768;28;20030;-75
2023/04/20 12:41:03;;;;;;;4.93;3.55;;;11.90;99.90;;;;;;4994172;28;20035;-76
2023/04/20 12:43:30;;;;;;;4.13;3.20;;;11.90;99.90;;;;;;4991924;28;20042;-75
2023/04/20 12:45:55;;;;;;;5.68;3.45;;;11.80;99.90;;;;;;4992565;28;20454;-75
2023/04/20 12:48:21;;;;;;;4.28;3.05;;;11.80;99.90;;;;;;4993312;28;20122;-74
2023/04/20 12:50:47;;;;;;;6.50;3.40;;;11.80;99.90;;;;;;4992823;28;20027;-75